sensor_id;sensor_type;location;lat;lon;timestamp;P1;durP1;ratioP1;P2;durP2;ratioP2
18274;SDS011;19470;49.322;7.218;2023-05-07T00:00:26;2.53;;;2.10;;
18274;SDS011;19470;49.322;7.218;2023-05-07T00:02:52;197.85;;;114.68;;
18274;SDS011;19470;49.322;7.218;2023-05-07T00:05:19;7.88;;;3.50;;
18274;SDS011;19470;49.322;7.218;2023-05-07T00:07:46;3.40;;;2.05;;
18274;SDS011;19470;49.322;7.218;2023-05-07T00:10:12;11.00;;;2.83;;
18274;SDS011;19470;49.322;7.218;2023-05-07T00:12:39;6.03;;;2.10;;
18274;SDS011;19470;49.322;7.218;2023-05-07T00:15:06;4.07;;;2.20;;
18274;SDS011;19470;49.322;7.218;2023-05-07T00:17:35;3.92;;;1.80;;
18274;SDS011;19470;49.322;7.218;2023-05-07T00:20:02;5.35;;;2.25;;
18274;SDS011;19470;49.322;7.218;2023-05-07T00:22:29;5.57;;;1.95;;
18274;SDS011;19470;49.322;7.218;2023-05-07T00:24:57;5.75;;;2.08;;
18274;SDS011;19470;49.322;7.218;2023-05-07T00:27:24;13.52;;;9.02;;
18274;SDS011;19470;49.322;7.218;2023-05-07T00:29:50;51.45;;;33.35;;
18274;SDS011;19470;49.322;7.218;2023-05-07T00:32:17;3.83;;;2.28;;
18274;SDS011;19470;49.322;7.218;2023-05-07T00:34:45;3.17;;;2.08;;
18274;SDS011;19470;49.322;7.218;2023-05-07T00:37:11;4.40;;;1.77;;
18274;SDS011;19470;49.322;7.218;2023-05-07T00:39:38;4.53;;;1.90;;
18274;SDS011;19470;49.322;7.218;2023-05-07T00:42:04;4.38;;;2.35;;
18274;SDS011;19470;49.322;7.218;2023-05-07T00:44:31;2.65;;;1.85;;
18274;SDS011;19470;49.322;7.218;2023-05-07T00:46:57;4.53;;;2.38;;
18274;SDS011;19470;49.322;7.218;2023-05-07T00:49:24;4.78;;;2.22;;
18274;SDS011;19470;49.322;7.218;2023-05-07T00:52:02;4.50;;;2.75;;
18274;SDS011;19470;49.322;7.218;2023-05-07T00:54:28;5.25;;;2.40;;
18274;SDS011;19470;49.322;7.218;2023-05-07T00:56:55;5.07;;;2.20;;
18274;SDS011;19470;49.322;7.218;2023-05-07T00:59:22;3.97;;;2.35;;
18274;SDS011;19470;49.322;7.218;2023-05-07T01:01:49;4.25;;;2.40;;
18274;SDS011;19470;49.322;7.218;2023-05-07T01:04:15;6.07;;;2.22;;
18274;SDS011;19470;49.322;7.218;2023-05-07T01:06:42;3.10;;;2.30;;
18274;SDS011;19470;49.322;7.218;2023-05-07T01:09:11;6.63;;;2.30;;
18274;SDS011;19470;49.322;7.218;2023-05-07T01:11:38;7.15;;;4.72;;
18274;SDS011;19470;49.322;7.218;2023-05-07T01:14:06;12.27;;;5.45;;
18274;SDS011;19470;49.322;7.218;2023-05-07T01:16:34;6.47;;;2.65;;
18274;SDS011;19470;49.322;7.218;2023-05-07T01:19:02;3.55;;;2.22;;
18274;SDS011;19470;49.322;7.218;2023-05-07T01:21:29;3.30;;;2.40;;
18274;SDS011;19470;49.322;7.218;2023-05-07T01:24:00;3.45;;;2.35;;
18274;SDS011;19470;49.322;7.218;2023-05-07T01:26:27;3.63;;;2.15;;
18274;SDS011;19470;49.322;7.218;2023-05-07T01:28:53;5.47;;;2.65;;
18274;SDS011;19470;49.322;7.218;2023-05-07T01:31:20;4.22;;;2.28;;
18274;SDS011;19470;49.322;7.218;2023-05-07T01:33:47;6.05;;;2.25;;
18274;SDS011;19470;49.322;7.218;2023-05-07T01:36:24;3.63;;;2.40;;
18274;SDS011;19470;49.322;7.218;2023-05-07T01:38:53;2.67;;;1.80;;
18274;SDS011;19470;49.322;7.218;2023-05-07T01:41:21;3.42;;;2.20;;
18274;SDS011;19470;49.322;7.218;2023-05-07T01:43:48;2.33;;;2.00;;
18274;SDS011;19470;49.322;7.218;2023-05-07T01:46:16;4.00;;;2.08;;
18274;SDS011;19470;49.322;7.218;2023-05-07T01:48:43;8.07;;;2.28;;
18274;SDS011;19470;49.322;7.218;2023-05-07T01:51:11;3.70;;;2.63;;
18274;SDS011;19470;49.322;7.218;2023-05-07T01:53:38;4.32;;;2.70;;
18274;SDS011;19470;49.322;7.218;2023-05-07T01:56:05;5.30;;;2.78;;
18274;SDS011;19470;49.322;7.218;2023-05-07T01:58:34;3.25;;;2.70;;
18274;SDS011;19470;49.322;7.218;2023-05-07T02:01:00;3.42;;;2.30;;
18274;SDS011;19470;49.322;7.218;2023-05-07T02:03:27;3.20;;;2.35;;
18274;SDS011;19470;49.322;7.218;2023-05-07T02:05:53;4.43;;;2.45;;
18274;SDS011;19470;49.322;7.218;2023-05-07T02:08:20;9.55;;;2.30;;
18274;SDS011;19470;49.322;7.218;2023-05-07T02:10:46;3.90;;;2.58;;
18274;SDS011;19470;49.322;7.218;2023-05-07T02:13:13;69.38;;;41.35;;
18274;SDS011;19470;49.322;7.218;2023-05-07T02:15:41;55.65;;;35.40;;
18274;SDS011;19470;49.322;7.218;2023-05-07T02:21:28;10.68;;;5.38;;
18274;SDS011;19470;49.322;7.218;2023-05-07T02:23:55;4.90;;;2.75;;
18274;SDS011;19470;49.322;7.218;2023-05-07T02:26:21;4.40;;;2.50;;
18274;SDS011;19470;49.322;7.218;2023-05-07T02:28:48;3.95;;;2.63;;
18274;SDS011;19470;49.322;7.218;2023-05-07T02:31:16;4.43;;;2.67;;
18274;SDS011;19470;49.322;7.218;2023-05-07T02:33:43;3.83;;;2.47;;
18274;SDS011;19470;49.322;7.218;2023-05-07T02:36:10;9.20;;;5.93;;
18274;SDS011;19470;49.322;7.218;2023-05-07T02:38:38;6.55;;;4.00;;
18274;SDS011;19470;49.322;7.218;2023-05-07T02:41:04;8.25;;;3.13;;
18274;SDS011;19470;49.322;7.218;2023-05-07T02:43:31;3.28;;;2.65;;
18274;SDS011;19470;49.322;7.218;2023-05-07T02:46:01;7.03;;;2.47;;
18274;SDS011;19470;49.322;7.218;2023-05-07T02:48:30;3.78;;;2.45;;
18274;SDS011;19470;49.322;7.218;2023-05-07T02:50:56;2.45;;;2.10;;
18274;SDS011;19470;49.322;7.218;2023-05-07T02:53:23;4.40;;;2.78;;
18274;SDS011;19470;49.322;7.218;2023-05-07T02:55:51;4.20;;;2.60;;
18274;SDS011;19470;49.322;7.218;2023-05-07T02:58:17;5.38;;;2.58;;
18274;SDS011;19470;49.322;7.218;2023-05-07T03:00:44;5.18;;;2.90;;
18274;SDS011;19470;49.322;7.218;2023-05-07T03:03:10;5.38;;;3.30;;
18274;SDS011;19470;49.322;7.218;2023-05-07T03:05:38;4.30;;;2.45;;
18274;SDS011;19470;49.322;7.218;2023-05-07T03:08:05;3.97;;;2.58;;
18274;SDS011;19470;49.322;7.218;2023-05-07T03:10:32;3.53;;;2.40;;
18274;SDS011;19470;49.322;7.218;2023-05-07T03:12:58;3.30;;;2.55;;
18274;SDS011;19470;49.322;7.218;2023-05-07T03:15:25;8.07;;;2.42;;
18274;SDS011;19470;49.322;7.218;2023-05-07T03:17:51;5.15;;;2.60;;
18274;SDS011;19470;49.322;7.218;2023-05-07T03:20:18;5.20;;;2.25;;
18274;SDS011;19470;49.322;7.218;2023-05-07T03:22:46;3.72;;;2.70;;
18274;SDS011;19470;49.322;7.218;2023-05-07T03:25:12;5.65;;;2.55;;
18274;SDS011;19470;49.322;7.218;2023-05-07T03:27:39;3.33;;;2.67;;
18274;SDS011;19470;49.322;7.218;2023-05-07T03:30:07;4.00;;;2.58;;
18274;SDS011;19470;49.322;7.218;2023-05-07T03:32:34;5.50;;;2.63;;
18274;SDS011;19470;49.322;7.218;2023-05-07T03:35:01;3.08;;;2.45;;
18274;SDS011;19470;49.322;7.218;2023-05-07T03:37:28;4.57;;;2.65;;
18274;SDS011;19470;49.322;7.218;2023-05-07T03:39:56;5.18;;;2.88;;
18274;SDS011;19470;49.322;7.218;2023-05-07T03:42:23;6.18;;;2.75;;
18274;SDS011;19470;49.322;7.218;2023-05-07T03:44:49;3.67;;;2.45;;
18274;SDS011;19470;49.322;7.218;2023-05-07T03:47:16;2.53;;;2.33;;
18274;SDS011;19470;49.322;7.218;2023-05-07T03:49:42;5.13;;;3.03;;
18274;SDS011;19470;49.322;7.218;2023-05-07T03:52:08;5.85;;;2.50;;
18274;SDS011;19470;49.322;7.218;2023-05-07T03:54:35;7.85;;;2.67;;
18274;SDS011;19470;49.322;7.218;2023-05-07T03:57:03;4.35;;;2.55;;
18274;SDS011;19470;49.322;7.218;2023-05-07T03:59:30;5.60;;;2.55;;
18274;SDS011;19470;49.322;7.218;2023-05-07T04:01:56;6.70;;;3.05;;
18274;SDS011;19470;49.322;7.218;2023-05-07T04:04:23;7.25;;;2.83;;
18274;SDS011;19470;49.322;7.218;2023-05-07T04:06:49;7.38;;;3.22;;
18274;SDS011;19470;49.322;7.218;2023-05-07T04:09:16;7.05;;;2.85;;
18274;SDS011;19470;49.322;7.218;2023-05-07T04:11:43;5.03;;;2.80;;
18274;SDS011;19470;49.322;7.218;2023-05-07T04:14:10;4.90;;;2.67;;
18274;SDS011;19470;49.322;7.218;2023-05-07T04:16:37;14.30;;;7.88;;
18274;SDS011;19470;49.322;7.218;2023-05-07T04:19:03;10.55;;;6.93;;
18274;SDS011;19470;49.322;7.218;2023-05-07T04:21:30;4.40;;;2.70;;
18274;SDS011;19470;49.322;7.218;2023-05-07T04:23:57;4.68;;;2.75;;
18274;SDS011;19470;49.322;7.218;2023-05-07T04:26:23;3.20;;;2.50;;
18274;SDS011;19470;49.322;7.218;2023-05-07T04:28:50;2.78;;;2.35;;
18274;SDS011;19470;49.322;7.218;2023-05-07T04:31:18;4.03;;;3.25;;
18274;SDS011;19470;49.322;7.218;2023-05-07T04:33:44;4.80;;;2.92;;
18274;SDS011;19470;49.322;7.218;2023-05-07T04:36:11;5.85;;;2.88;;
18274;SDS011;19470;49.322;7.218;2023-05-07T04:38:38;4.57;;;2.70;;
18274;SDS011;19470;49.322;7.218;2023-05-07T04:41:05;8.77;;;2.88;;
18274;SDS011;19470;49.322;7.218;2023-05-07T04:43:32;5.55;;;2.60;;
18274;SDS011;19470;49.322;7.218;2023-05-07T04:45:59;4.43;;;2.58;;
18274;SDS011;19470;49.322;7.218;2023-05-07T04:48:27;2.92;;;2.63;;
18274;SDS011;19470;49.322;7.218;2023-05-07T04:50:53;4.22;;;2.72;;
18274;SDS011;19470;49.322;7.218;2023-05-07T04:53:20;4.00;;;2.70;;
18274;SDS011;19470;49.322;7.218;2023-05-07T04:55:47;3.75;;;2.40;;
18274;SDS011;19470;49.322;7.218;2023-05-07T04:58:13;2.97;;;2.28;;
18274;SDS011;19470;49.322;7.218;2023-05-07T05:00:40;3.58;;;2.33;;
18274;SDS011;19470;49.322;7.218;2023-05-07T05:03:07;3.67;;;2.70;;
18274;SDS011;19470;49.322;7.218;2023-05-07T05:05:35;3.17;;;2.75;;
18274;SDS011;19470;49.322;7.218;2023-05-07T05:08:01;3.75;;;2.40;;
18274;SDS011;19470;49.322;7.218;2023-05-07T05:10:28;4.47;;;3.15;;
18274;SDS011;19470;49.322;7.218;2023-05-07T05:12:55;6.75;;;3.20;;
18274;SDS011;19470;49.322;7.218;2023-05-07T05:15:21;3.40;;;2.85;;
18274;SDS011;19470;49.322;7.218;2023-05-07T05:17:48;3.95;;;2.50;;
18274;SDS011;19470;49.322;7.218;2023-05-07T05:20:14;3.40;;;2.58;;
18274;SDS011;19470;49.322;7.218;2023-05-07T05:22:42;3.80;;;2.75;;
18274;SDS011;19470;49.322;7.218;2023-05-07T05:25:09;5.47;;;2.80;;
18274;SDS011;19470;49.322;7.218;2023-05-07T05:27:35;4.28;;;2.60;;
18274;SDS011;19470;49.322;7.218;2023-05-07T05:30:02;5.10;;;2.70;;
18274;SDS011;19470;49.322;7.218;2023-05-07T05:32:30;5.78;;;3.22;;
18274;SDS011;19470;49.322;7.218;2023-05-07T05:34:57;5.43;;;2.90;;
18274;SDS011;19470;49.322;7.218;2023-05-07T05:37:23;4.97;;;2.92;;
18274;SDS011;19470;49.322;7.218;2023-05-07T05:39:52;3.38;;;2.80;;
18274;SDS011;19470;49.322;7.218;2023-05-07T05:42:19;5.80;;;2.83;;
18274;SDS011;19470;49.322;7.218;2023-05-07T05:44:46;4.35;;;2.90;;
18274;SDS011;19470;49.322;7.218;2023-05-07T05:47:13;7.18;;;3.17;;
18274;SDS011;19470;49.322;7.218;2023-05-07T05:49:39;4.20;;;2.63;;
18274;SDS011;19470;49.322;7.218;2023-05-07T05:52:08;5.65;;;3.05;;
18274;SDS011;19470;49.322;7.218;2023-05-07T05:54:34;4.13;;;3.00;;
18274;SDS011;19470;49.322;7.218;2023-05-07T05:57:02;5.68;;;3.10;;
18274;SDS011;19470;49.322;7.218;2023-05-07T05:59:31;4.88;;;3.65;;
18274;SDS011;19470;49.322;7.218;2023-05-07T06:01:57;6.13;;;3.75;;
18274;SDS011;19470;49.322;7.218;2023-05-07T06:04:24;13.88;;;5.45;;
18274;SDS011;19470;49.322;7.218;2023-05-07T06:06:50;4.10;;;3.70;;
18274;SDS011;19470;49.322;7.218;2023-05-07T06:09:17;5.43;;;4.57;;
18274;SDS011;19470;49.322;7.218;2023-05-07T06:11:43;5.53;;;4.93;;
18274;SDS011;19470;49.322;7.218;2023-05-07T06:14:11;6.25;;;4.45;;
18274;SDS011;19470;49.322;7.218;2023-05-07T06:16:38;5.15;;;4.65;;
18274;SDS011;19470;49.322;7.218;2023-05-07T06:19:04;6.72;;;4.80;;
18274;SDS011;19470;49.322;7.218;2023-05-07T06:21:31;10.35;;;9.27;;
18274;SDS011;19470;49.322;7.218;2023-05-07T06:23:57;5.65;;;5.10;;
18274;SDS011;19470;49.322;7.218;2023-05-07T06:26:24;6.68;;;6.07;;
18274;SDS011;19470;49.322;7.218;2023-05-07T06:28:50;10.02;;;5.55;;
18274;SDS011;19470;49.322;7.218;2023-05-07T06:31:18;10.90;;;8.48;;
18274;SDS011;19470;49.322;7.218;2023-05-07T06:33:46;11.25;;;9.57;;
18274;SDS011;19470;49.322;7.218;2023-05-07T06:36:15;7.65;;;7.03;;
18274;SDS011;19470;49.322;7.218;2023-05-07T06:38:41;12.88;;;11.80;;
18274;SDS011;19470;49.322;7.218;2023-05-07T06:41:08;14.65;;;13.15;;
18274;SDS011;19470;49.322;7.218;2023-05-07T06:43:35;20.45;;;18.85;;
18274;SDS011;19470;49.322;7.218;2023-05-07T06:46:01;18.70;;;17.08;;
18274;SDS011;19470;49.322;7.218;2023-05-07T06:48:29;23.58;;;21.90;;
18274;SDS011;19470;49.322;7.218;2023-05-07T06:50:56;17.40;;;15.82;;
18274;SDS011;19470;49.322;7.218;2023-05-07T06:53:22;23.95;;;22.23;;
18274;SDS011;19470;49.322;7.218;2023-05-07T06:55:49;33.80;;;31.42;;
18274;SDS011;19470;49.322;7.218;2023-05-07T06:58:17;43.85;;;41.00;;
18274;SDS011;19470;49.322;7.218;2023-05-07T07:00:43;42.50;;;39.90;;
18274;SDS011;19470;49.322;7.218;2023-05-07T07:03:10;49.33;;;46.38;;
18274;SDS011;19470;49.322;7.218;2023-05-07T07:05:39;42.30;;;39.55;;
18274;SDS011;19470;49.322;7.218;2023-05-07T07:08:06;44.28;;;41.50;;
18274;SDS011;19470;49.322;7.218;2023-05-07T07:10:33;50.00;;;46.60;;
18274;SDS011;19470;49.322;7.218;2023-05-07T07:12:59;92.38;;;83.95;;
18274;SDS011;19470;49.322;7.218;2023-05-07T07:15:26;74.05;;;69.15;;
18274;SDS011;19470;49.322;7.218;2023-05-07T07:17:52;74.40;;;69.88;;
18274;SDS011;19470;49.322;7.218;2023-05-07T07:20:19;98.13;;;91.15;;
18274;SDS011;19470;49.322;7.218;2023-05-07T07:22:47;86.22;;;80.90;;
18274;SDS011;19470;49.322;7.218;2023-05-07T07:25:13;131.98;;;124.07;;
18274;SDS011;19470;49.322;7.218;2023-05-07T07:27:40;122.47;;;115.03;;
18274;SDS011;19470;49.322;7.218;2023-05-07T07:30:06;132.40;;;125.00;;
18274;SDS011;19470;49.322;7.218;2023-05-07T07:32:34;158.93;;;150.15;;
18274;SDS011;19470;49.322;7.218;2023-05-07T07:35:00;166.30;;;156.88;;
18274;SDS011;19470;49.322;7.218;2023-05-07T07:37:30;183.85;;;171.23;;
18274;SDS011;19470;49.322;7.218;2023-05-07T07:39:58;205.82;;;192.40;;
18274;SDS011;19470;49.322;7.218;2023-05-07T07:42:26;237.55;;;223.10;;
18274;SDS011;19470;49.322;7.218;2023-05-07T07:44:54;234.60;;;220.95;;
18274;SDS011;19470;49.322;7.218;2023-05-07T07:47:22;229.20;;;216.10;;
18274;SDS011;19470;49.322;7.218;2023-05-07T07:49:48;274.00;;;258.70;;
18274;SDS011;19470;49.322;7.218;2023-05-07T07:52:15;362.05;;;341.63;;
18274;SDS011;19470;49.322;7.218;2023-05-07T07:54:41;383.40;;;361.52;;
18274;SDS011;19470;49.322;7.218;2023-05-07T07:57:09;384.70;;;362.63;;
18274;SDS011;19470;49.322;7.218;2023-05-07T07:59:35;437.10;;;411.08;;
18274;SDS011;19470;49.322;7.218;2023-05-07T08:02:02;473.42;;;443.77;;
18274;SDS011;19470;49.322;7.218;2023-05-07T08:04:28;613.03;;;574.53;;
18274;SDS011;19470;49.322;7.218;2023-05-07T08:06:55;728.75;;;679.30;;
18274;SDS011;19470;49.322;7.218;2023-05-07T08:09:22;700.42;;;654.03;;
18274;SDS011;19470;49.322;7.218;2023-05-07T08:11:49;730.10;;;681.13;;
18274;SDS011;19470;49.322;7.218;2023-05-07T08:14:17;726.97;;;678.17;;
18274;SDS011;19470;49.322;7.218;2023-05-07T08:16:43;744.85;;;693.95;;
18274;SDS011;19470;49.322;7.218;2023-05-07T08:19:10;730.45;;;680.65;;
18274;SDS011;19470;49.322;7.218;2023-05-07T08:24:58;885.20;;;822.83;;
18274;SDS011;19470;49.322;7.218;2023-05-07T08:27:24;881.72;;;819.97;;
18274;SDS011;19470;49.322;7.218;2023-05-07T08:29:52;950.25;;;879.70;;
18274;SDS011;19470;49.322;7.218;2023-05-07T08:32:19;1089.25;;;998.70;;
18274;SDS011;19470;49.322;7.218;2023-05-07T08:34:46;1137.13;;;999.90;;
18274;SDS011;19470;49.322;7.218;2023-05-07T08:37:13;1143.85;;;999.90;;
18274;SDS011;19470;49.322;7.218;2023-05-07T08:39:40;1140.28;;;999.90;;
18274;SDS011;19470;49.322;7.218;2023-05-07T08:42:06;1155.82;;;999.90;;
18274;SDS011;19470;49.322;7.218;2023-05-07T08:44:35;1194.93;;;999.90;;
18274;SDS011;19470;49.322;7.218;2023-05-07T08:47:07;1188.90;;;999.90;;
18274;SDS011;19470;49.322;7.218;2023-05-07T08:49:33;1205.70;;;999.90;;
18274;SDS011;19470;49.322;7.218;2023-05-07T08:52:01;1196.93;;;999.90;;
18274;SDS011;19470;49.322;7.218;2023-05-07T08:54:27;1198.32;;;999.90;;
18274;SDS011;19470;49.322;7.218;2023-05-07T08:56:55;1140.30;;;999.90;;
18274;SDS011;19470;49.322;7.218;2023-05-07T08:59:21;1086.93;;;998.95;;
18274;SDS011;19470;49.322;7.218;2023-05-07T09:01:48;1067.80;;;981.53;;
18274;SDS011;19470;49.322;7.218;2023-05-07T09:04:16;1082.25;;;994.40;;
18274;SDS011;19470;49.322;7.218;2023-05-07T09:06:43;1093.38;;;999.90;;
18274;SDS011;19470;49.322;7.218;2023-05-07T09:09:09;1134.50;;;999.90;;
18274;SDS011;19470;49.322;7.218;2023-05-07T09:11:40;1180.90;;;999.90;;
18274;SDS011;19470;49.322;7.218;2023-05-07T09:14:07;1171.65;;;999.90;;
18274;SDS011;19470;49.322;7.218;2023-05-07T09:16:34;1232.95;;;999.90;;
18274;SDS011;19470;49.322;7.218;2023-05-07T09:22:14;1296.28;;;999.90;;
18274;SDS011;19470;49.322;7.218;2023-05-07T09:24:42;1297.72;;;999.90;;
18274;SDS011;19470;49.322;7.218;2023-05-07T09:27:13;1326.18;;;999.90;;
18274;SDS011;19470;49.322;7.218;2023-05-07T09:29:40;1429.18;;;999.90;;
18274;SDS011;19470;49.322;7.218;2023-05-07T09:32:07;1469.38;;;999.90;;
18274;SDS011;19470;49.322;7.218;2023-05-07T09:34:34;1439.03;;;999.90;;
18274;SDS011;19470;49.322;7.218;2023-05-07T09:37:01;1332.85;;;999.90;;
18274;SDS011;19470;49.322;7.218;2023-05-07T09:39:39;1999.90;;;999.90;;
18274;SDS011;19470;49.322;7.218;2023-05-07T09:42:06;1999.90;;;999.90;;
18274;SDS011;19470;49.322;7.218;2023-05-07T09:44:33;1999.90;;;999.90;;
18274;SDS011;19470;49.322;7.218;2023-05-07T09:47:00;1999.90;;;999.90;;
18274;SDS011;19470;49.322;7.218;2023-05-07T09:49:30;1999.90;;;999.90;;
18274;SDS011;19470;49.322;7.218;2023-05-07T09:52:00;1999.90;;;999.90;;
18274;SDS011;19470;49.322;7.218;2023-05-07T09:54:27;1999.90;;;999.90;;
18274;SDS011;19470;49.322;7.218;2023-05-07T09:56:57;1999.90;;;999.90;;
18274;SDS011;19470;49.322;7.218;2023-05-07T09:59:24;1999.90;;;999.90;;
18274;SDS011;19470;49.322;7.218;2023-05-07T10:01:52;1999.90;;;999.90;;
18274;SDS011;19470;49.322;7.218;2023-05-07T10:04:23;1999.90;;;999.90;;
18274;SDS011;19470;49.322;7.218;2023-05-07T10:06:51;1999.90;;;999.90;;
18274;SDS011;19470;49.322;7.218;2023-05-07T10:09:18;1999.90;;;999.90;;
18274;SDS011;19470;49.322;7.218;2023-05-07T10:11:45;1999.90;;;999.90;;
18274;SDS011;19470;49.322;7.218;2023-05-07T10:14:16;1999.90;;;999.90;;
18274;SDS011;19470;49.322;7.218;2023-05-07T10:16:43;1999.90;;;999.90;;
18274;SDS011;19470;49.322;7.218;2023-05-07T10:19:11;1999.90;;;999.90;;
18274;SDS011;19470;49.322;7.218;2023-05-07T10:21:39;1999.90;;;999.90;;
18274;SDS011;19470;49.322;7.218;2023-05-07T10:24:10;1999.90;;;999.90;;
18274;SDS011;19470;49.322;7.218;2023-05-07T10:26:43;1999.90;;;999.90;;
18274;SDS011;19470;49.322;7.218;2023-05-07T10:29:12;1999.90;;;999.90;;
18274;SDS011;19470;49.322;7.218;2023-05-07T10:31:48;1999.90;;;999.90;;
18274;SDS011;19470;49.322;7.218;2023-05-07T10:34:21;1999.90;;;999.90;;
18274;SDS011;19470;49.322;7.218;2023-05-07T10:36:50;1999.90;;;999.90;;
18274;SDS011;19470;49.322;7.218;2023-05-07T10:39:19;1999.90;;;999.90;;
18274;SDS011;19470;49.322;7.218;2023-05-07T10:41:45;1999.90;;;999.90;;
18274;SDS011;19470;49.322;7.218;2023-05-07T10:44:15;1999.90;;;999.90;;
18274;SDS011;19470;49.322;7.218;2023-05-07T10:47:04;1999.90;;;999.90;;
18274;SDS011;19470;49.322;7.218;2023-05-07T10:49:34;1999.90;;;999.90;;
18274;SDS011;19470;49.322;7.218;2023-05-07T10:52:10;1999.90;;;999.90;;
18274;SDS011;19470;49.322;7.218;2023-05-07T10:54:38;1999.90;;;999.90;;
18274;SDS011;19470;49.322;7.218;2023-05-07T11:00:40;1999.90;;;999.90;;
18274;SDS011;19470;49.322;7.218;2023-05-07T11:03:11;1999.90;;;999.90;;
18274;SDS011;19470;49.322;7.218;2023-05-07T11:05:37;1999.90;;;999.90;;
18274;SDS011;19470;49.322;7.218;2023-05-07T11:08:04;1999.90;;;999.90;;
18274;SDS011;19470;49.322;7.218;2023-05-07T11:10:50;1999.90;;;999.90;;
18274;SDS011;19470;49.322;7.218;2023-05-07T11:13:18;1999.90;;;999.90;;
18274;SDS011;19470;49.322;7.218;2023-05-07T11:16:04;1999.90;;;999.90;;
18274;SDS011;19470;49.322;7.218;2023-05-07T11:18:47;1999.90;;;999.90;;
18274;SDS011;19470;49.322;7.218;2023-05-07T11:21:25;1999.90;;;999.90;;
18274;SDS011;19470;49.322;7.218;2023-05-07T11:23:58;949.65;;;858.83;;
18274;SDS011;19470;49.322;7.218;2023-05-07T11:26:25;983.88;;;889.90;;
18274;SDS011;19470;49.322;7.218;2023-05-07T11:28:53;716.95;;;651.70;;
18274;SDS011;19470;49.322;7.218;2023-05-07T11:31:22;588.63;;;534.72;;
18274;SDS011;19470;49.322;7.218;2023-05-07T11:33:52;1614.90;;;853.85;;
18274;SDS011;19470;49.322;7.218;2023-05-07T11:36:20;1999.90;;;999.90;;
18274;SDS011;19470;49.322;7.218;2023-05-07T11:38:47;1999.90;;;999.90;;
18274;SDS011;19470;49.322;7.218;2023-05-07T11:41:15;1999.90;;;999.90;;
18274;SDS011;19470;49.322;7.218;2023-05-07T11:43:56;1999.90;;;999.90;;
18274;SDS011;19470;49.322;7.218;2023-05-07T11:46:24;810.15;;;737.53;;
18274;SDS011;19470;49.322;7.218;2023-05-07T11:48:52;1127.95;;;999.90;;
18274;SDS011;19470;49.322;7.218;2023-05-07T11:51:19;1109.15;;;996.28;;
18274;SDS011;19470;49.322;7.218;2023-05-07T11:53:47;1100.43;;;993.53;;
18274;SDS011;19470;49.322;7.218;2023-05-07T11:56:14;1068.63;;;970.72;;
18274;SDS011;19470;49.322;7.218;2023-05-07T11:58:42;1071.30;;;970.65;;
18274;SDS011;19470;49.322;7.218;2023-05-07T12:01:10;1101.15;;;993.78;;
18274;SDS011;19470;49.322;7.218;2023-05-07T12:03:39;886.33;;;800.45;;
18274;SDS011;19470;49.322;7.218;2023-05-07T12:06:10;999.00;;;901.85;;
18274;SDS011;19470;49.322;7.218;2023-05-07T12:08:38;1999.90;;;999.90;;
18274;SDS011;19470;49.322;7.218;2023-05-07T12:11:06;1085.18;;;981.97;;
18274;SDS011;19470;49.322;7.218;2023-05-07T12:13:34;1130.75;;;999.90;;
18274;SDS011;19470;49.322;7.218;2023-05-07T12:16:01;1161.65;;;999.90;;
18274;SDS011;19470;49.322;7.218;2023-05-07T12:18:29;1166.63;;;999.90;;
18274;SDS011;19470;49.322;7.218;2023-05-07T12:20:58;1159.47;;;999.90;;
18274;SDS011;19470;49.322;7.218;2023-05-07T12:23:26;1152.20;;;999.90;;
18274;SDS011;19470;49.322;7.218;2023-05-07T12:25:54;1134.15;;;999.90;;
18274;SDS011;19470;49.322;7.218;2023-05-07T12:28:20;1141.15;;;999.90;;
18274;SDS011;19470;49.322;7.218;2023-05-07T12:30:47;1126.68;;;999.90;;
18274;SDS011;19470;49.322;7.218;2023-05-07T12:33:15;1131.57;;;999.90;;
18274;SDS011;19470;49.322;7.218;2023-05-07T12:35:43;1124.97;;;999.90;;
18274;SDS011;19470;49.322;7.218;2023-05-07T12:38:10;1162.78;;;999.90;;
18274;SDS011;19470;49.322;7.218;2023-05-07T12:40:40;1171.63;;;999.90;;
18274;SDS011;19470;49.322;7.218;2023-05-07T12:43:08;1190.55;;;999.90;;
18274;SDS011;19470;49.322;7.218;2023-05-07T12:45:41;1156.03;;;999.90;;
18274;SDS011;19470;49.322;7.218;2023-05-07T12:48:09;1174.35;;;999.90;;
18274;SDS011;19470;49.322;7.218;2023-05-07T12:50:36;1208.03;;;999.90;;
18274;SDS011;19470;49.322;7.218;2023-05-07T12:53:02;1133.38;;;999.90;;
18274;SDS011;19470;49.322;7.218;2023-05-07T12:55:31;1160.47;;;999.90;;
18274;SDS011;19470;49.322;7.218;2023-05-07T12:58:00;1098.65;;;999.53;;
18274;SDS011;19470;49.322;7.218;2023-05-07T13:00:34;1077.45;;;986.15;;
18274;SDS011;19470;49.322;7.218;2023-05-07T13:03:01;1099.65;;;999.90;;
18274;SDS011;19470;49.322;7.218;2023-05-07T13:05:28;1065.65;;;976.85;;
18274;SDS011;19470;49.322;7.218;2023-05-07T13:07:55;1165.88;;;999.90;;
18274;SDS011;19470;49.322;7.218;2023-05-07T13:10:22;1128.10;;;999.90;;
18274;SDS011;19470;49.322;7.218;2023-05-07T13:12:49;1044.78;;;960.03;;
18274;SDS011;19470;49.322;7.218;2023-05-07T13:15:17;1036.43;;;952.58;;
18274;SDS011;19470;49.322;7.218;2023-05-07T13:17:43;1032.47;;;950.45;;
18274;SDS011;19470;49.322;7.218;2023-05-07T13:20:10;1040.10;;;957.13;;
18274;SDS011;19470;49.322;7.218;2023-05-07T13:22:37;993.58;;;915.78;;
18274;SDS011;19470;49.322;7.218;2023-05-07T13:25:04;1068.38;;;976.45;;
18274;SDS011;19470;49.322;7.218;2023-05-07T13:27:32;1175.72;;;999.90;;
18274;SDS011;19470;49.322;7.218;2023-05-07T13:30:00;997.03;;;919.40;;
18274;SDS011;19470;49.322;7.218;2023-05-07T13:32:28;961.03;;;887.33;;
18274;SDS011;19470;49.322;7.218;2023-05-07T13:34:56;1028.63;;;944.17;;
18274;SDS011;19470;49.322;7.218;2023-05-07T13:37:22;943.13;;;872.38;;
18274;SDS011;19470;49.322;7.218;2023-05-07T13:39:49;998.40;;;919.25;;
18274;SDS011;19470;49.322;7.218;2023-05-07T13:42:15;936.92;;;867.97;;
18274;SDS011;19470;49.322;7.218;2023-05-07T13:44:42;729.15;;;677.45;;
18274;SDS011;19470;49.322;7.218;2023-05-07T13:47:10;624.70;;;583.35;;
18274;SDS011;19470;49.322;7.218;2023-05-07T13:49:38;623.53;;;582.83;;
18274;SDS011;19470;49.322;7.218;2023-05-07T13:52:04;536.05;;;502.73;;
18274;SDS011;19470;49.322;7.218;2023-05-07T13:54:31;509.10;;;478.15;;
18274;SDS011;19470;49.322;7.218;2023-05-07T13:56:58;520.47;;;488.15;;
18274;SDS011;19470;49.322;7.218;2023-05-07T13:59:24;693.95;;;646.80;;
18274;SDS011;19470;49.322;7.218;2023-05-07T14:01:51;580.20;;;543.80;;
18274;SDS011;19470;49.322;7.218;2023-05-07T14:04:17;708.05;;;660.72;;
18274;SDS011;19470;49.322;7.218;2023-05-07T14:06:45;883.55;;;821.10;;
18274;SDS011;19470;49.322;7.218;2023-05-07T14:09:12;909.88;;;845.03;;
18274;SDS011;19470;49.322;7.218;2023-05-07T14:11:38;886.30;;;824.45;;
18274;SDS011;19470;49.322;7.218;2023-05-07T14:14:05;1004.42;;;928.25;;
18274;SDS011;19470;49.322;7.218;2023-05-07T14:16:32;957.65;;;886.90;;
18274;SDS011;19470;49.322;7.218;2023-05-07T14:18:58;978.88;;;904.33;;
18274;SDS011;19470;49.322;7.218;2023-05-07T14:21:25;963.78;;;892.88;;
18274;SDS011;19470;49.322;7.218;2023-05-07T14:23:53;886.38;;;823.35;;
18274;SDS011;19470;49.322;7.218;2023-05-07T14:26:21;948.90;;;876.95;;
18274;SDS011;19470;49.322;7.218;2023-05-07T14:28:48;845.22;;;785.28;;
18274;SDS011;19470;49.322;7.218;2023-05-07T14:31:15;873.13;;;812.05;;